sensor_id;sensor_type;location;lat;lon;timestamp;P1;durP1;ratioP1;P2;durP2;ratioP2
65936;SDS011;52707;52.086;5.418;2023-06-22T00:00:48;7.43;;;4.97;;
65936;SDS011;52707;52.086;5.418;2023-06-22T00:03:16;8.85;;;5.15;;
65936;SDS011;52707;52.086;5.418;2023-06-22T00:05:43;7.85;;;4.40;;
65936;SDS011;52707;52.086;5.418;2023-06-22T00:08:09;9.18;;;5.25;;
65936;SDS011;52707;52.086;5.418;2023-06-22T00:10:36;6.95;;;5.05;;
65936;SDS011;52707;52.086;5.418;2023-06-22T00:13:02;9.93;;;4.82;;
65936;SDS011;52707;52.086;5.418;2023-06-22T00:15:28;13.18;;;5.60;;
65936;SDS011;52707;52.086;5.418;2023-06-22T00:17:55;8.52;;;5.07;;
65936;SDS011;52707;52.086;5.418;2023-06-22T00:20:23;9.30;;;5.63;;
65936;SDS011;52707;52.086;5.418;2023-06-22T00:22:54;10.30;;;5.13;;
65936;SDS011;52707;52.086;5.418;2023-06-22T00:25:21;8.25;;;5.20;;
65936;SDS011;52707;52.086;5.418;2023-06-22T00:27:47;10.68;;;5.43;;
65936;SDS011;52707;52.086;5.418;2023-06-22T00:30:17;8.82;;;5.90;;
65936;SDS011;52707;52.086;5.418;2023-06-22T00:32:44;7.93;;;6.40;;
65936;SDS011;52707;52.086;5.418;2023-06-22T00:35:14;7.55;;;5.15;;
65936;SDS011;52707;52.086;5.418;2023-06-22T00:37:40;9.90;;;5.88;;
65936;SDS011;52707;52.086;5.418;2023-06-22T00:40:09;7.30;;;5.93;;
65936;SDS011;52707;52.086;5.418;2023-06-22T00:42:40;15.25;;;7.00;;
65936;SDS011;52707;52.086;5.418;2023-06-22T00:45:07;10.07;;;6.35;;
65936;SDS011;52707;52.086;5.418;2023-06-22T00:47:34;11.15;;;6.18;;
65936;SDS011;52707;52.086;5.418;2023-06-22T00:50:02;10.32;;;6.20;;
65936;SDS011;52707;52.086;5.418;2023-06-22T00:52:29;8.65;;;5.68;;
65936;SDS011;52707;52.086;5.418;2023-06-22T00:54:58;8.88;;;6.55;;
65936;SDS011;52707;52.086;5.418;2023-06-22T00:57:29;13.40;;;7.10;;
65936;SDS011;52707;52.086;5.418;2023-06-22T00:59:55;7.65;;;6.85;;
65936;SDS011;52707;52.086;5.418;2023-06-22T01:02:21;12.32;;;6.70;;
65936;SDS011;52707;52.086;5.418;2023-06-22T01:04:48;8.80;;;6.18;;
65936;SDS011;52707;52.086;5.418;2023-06-22T01:09:55;9.55;;;6.18;;
65936;SDS011;52707;52.086;5.418;2023-06-22T01:12:23;8.13;;;6.05;;
65936;SDS011;52707;52.086;5.418;2023-06-22T01:14:58;8.05;;;6.05;;
65936;SDS011;52707;52.086;5.418;2023-06-22T01:17:27;7.85;;;6.15;;
65936;SDS011;52707;52.086;5.418;2023-06-22T01:19:55;9.23;;;6.38;;
65936;SDS011;52707;52.086;5.418;2023-06-22T01:22:27;8.10;;;6.00;;
65936;SDS011;52707;52.086;5.418;2023-06-22T01:30:07;7.40;;;5.82;;
65936;SDS011;52707;52.086;5.418;2023-06-22T01:32:37;9.18;;;6.43;;
65936;SDS011;52707;52.086;5.418;2023-06-22T01:35:05;9.30;;;6.10;;
65936;SDS011;52707;52.086;5.418;2023-06-22T01:37:33;8.00;;;5.90;;
65936;SDS011;52707;52.086;5.418;2023-06-22T01:40:00;7.20;;;6.45;;
65936;SDS011;52707;52.086;5.418;2023-06-22T01:42:27;7.93;;;6.07;;
65936;SDS011;52707;52.086;5.418;2023-06-22T01:44:53;9.07;;;6.47;;
65936;SDS011;52707;52.086;5.418;2023-06-22T01:47:20;9.75;;;5.70;;
65936;SDS011;52707;52.086;5.418;2023-06-22T01:49:48;8.00;;;5.68;;
65936;SDS011;52707;52.086;5.418;2023-06-22T01:52:15;9.52;;;5.50;;
65936;SDS011;52707;52.086;5.418;2023-06-22T01:54:41;6.50;;;5.68;;
65936;SDS011;52707;52.086;5.418;2023-06-22T01:57:07;9.85;;;6.22;;
65936;SDS011;52707;52.086;5.418;2023-06-22T01:59:37;9.98;;;6.45;;
65936;SDS011;52707;52.086;5.418;2023-06-22T02:02:09;7.13;;;5.50;;
65936;SDS011;52707;52.086;5.418;2023-06-22T02:04:37;6.95;;;5.78;;
65936;SDS011;52707;52.086;5.418;2023-06-22T02:07:05;7.25;;;5.85;;
65936;SDS011;52707;52.086;5.418;2023-06-22T02:09:32;9.48;;;6.10;;
65936;SDS011;52707;52.086;5.418;2023-06-22T02:12:00;9.50;;;6.80;;
65936;SDS011;52707;52.086;5.418;2023-06-22T02:14:28;8.57;;;5.93;;
65936;SDS011;52707;52.086;5.418;2023-06-22T02:16:55;7.03;;;5.68;;
65936;SDS011;52707;52.086;5.418;2023-06-22T02:19:25;6.97;;;6.13;;
65936;SDS011;52707;52.086;5.418;2023-06-22T02:21:52;7.65;;;6.05;;
65936;SDS011;52707;52.086;5.418;2023-06-22T02:24:19;8.48;;;6.18;;
65936;SDS011;52707;52.086;5.418;2023-06-22T02:26:45;9.65;;;6.32;;
65936;SDS011;52707;52.086;5.418;2023-06-22T02:29:12;9.20;;;6.90;;
65936;SDS011;52707;52.086;5.418;2023-06-22T02:31:38;7.68;;;5.78;;
65936;SDS011;52707;52.086;5.418;2023-06-22T02:34:04;8.23;;;5.68;;
65936;SDS011;52707;52.086;5.418;2023-06-22T02:36:31;6.93;;;5.50;;
65936;SDS011;52707;52.086;5.418;2023-06-22T02:38:59;7.20;;;5.63;;
65936;SDS011;52707;52.086;5.418;2023-06-22T02:41:27;10.20;;;6.03;;
65936;SDS011;52707;52.086;5.418;2023-06-22T02:43:54;8.68;;;5.97;;
65936;SDS011;52707;52.086;5.418;2023-06-22T02:46:20;9.77;;;5.57;;
65936;SDS011;52707;52.086;5.418;2023-06-22T02:48:47;6.45;;;5.80;;
65936;SDS011;52707;52.086;5.418;2023-06-22T02:51:13;12.40;;;6.13;;
65936;SDS011;52707;52.086;5.418;2023-06-22T02:53:41;9.35;;;6.00;;
65936;SDS011;52707;52.086;5.418;2023-06-22T02:56:10;15.13;;;6.07;;
65936;SDS011;52707;52.086;5.418;2023-06-22T02:58:37;8.63;;;6.20;;
65936;SDS011;52707;52.086;5.418;2023-06-22T03:01:05;7.00;;;5.80;;
65936;SDS011;52707;52.086;5.418;2023-06-22T03:03:32;8.80;;;6.43;;
65936;SDS011;52707;52.086;5.418;2023-06-22T03:05:59;8.80;;;6.57;;
65936;SDS011;52707;52.086;5.418;2023-06-22T03:08:28;9.80;;;6.15;;
65936;SDS011;52707;52.086;5.418;2023-06-22T03:10:55;10.95;;;6.20;;
65936;SDS011;52707;52.086;5.418;2023-06-22T03:13:21;9.60;;;5.38;;
65936;SDS011;52707;52.086;5.418;2023-06-22T03:15:47;7.45;;;5.43;;
65936;SDS011;52707;52.086;5.418;2023-06-22T03:18:14;7.47;;;5.70;;
65936;SDS011;52707;52.086;5.418;2023-06-22T03:20:41;7.38;;;5.85;;
65936;SDS011;52707;52.086;5.418;2023-06-22T03:23:08;8.63;;;5.65;;
65936;SDS011;52707;52.086;5.418;2023-06-22T03:25:34;9.77;;;6.22;;
65936;SDS011;52707;52.086;5.418;2023-06-22T03:28:01;8.88;;;5.55;;
65936;SDS011;52707;52.086;5.418;2023-06-22T03:30:27;8.52;;;5.70;;
65936;SDS011;52707;52.086;5.418;2023-06-22T03:32:54;8.60;;;6.00;;
65936;SDS011;52707;52.086;5.418;2023-06-22T03:35:21;8.20;;;5.57;;
65936;SDS011;52707;52.086;5.418;2023-06-22T03:37:47;9.98;;;5.95;;
65936;SDS011;52707;52.086;5.418;2023-06-22T03:40:14;7.57;;;6.15;;
65936;SDS011;52707;52.086;5.418;2023-06-22T03:42:40;7.50;;;4.90;;
65936;SDS011;52707;52.086;5.418;2023-06-22T03:45:06;6.85;;;5.22;;
65936;SDS011;52707;52.086;5.418;2023-06-22T03:47:33;6.90;;;5.60;;
65936;SDS011;52707;52.086;5.418;2023-06-22T03:50:00;10.85;;;5.53;;
65936;SDS011;52707;52.086;5.418;2023-06-22T03:52:26;8.32;;;4.65;;
65936;SDS011;52707;52.086;5.418;2023-06-22T03:54:52;9.27;;;5.50;;
65936;SDS011;52707;52.086;5.418;2023-06-22T03:57:19;7.78;;;6.18;;
65936;SDS011;52707;52.086;5.418;2023-06-22T03:59:45;11.13;;;6.40;;
65936;SDS011;52707;52.086;5.418;2023-06-22T04:02:12;8.90;;;6.18;;
65936;SDS011;52707;52.086;5.418;2023-06-22T04:04:38;8.55;;;6.45;;
65936;SDS011;52707;52.086;5.418;2023-06-22T04:07:05;10.35;;;6.43;;
65936;SDS011;52707;52.086;5.418;2023-06-22T04:09:32;13.88;;;6.60;;
65936;SDS011;52707;52.086;5.418;2023-06-22T04:11:58;12.10;;;6.57;;
65936;SDS011;52707;52.086;5.418;2023-06-22T04:14:24;8.65;;;6.05;;
65936;SDS011;52707;52.086;5.418;2023-06-22T04:16:51;11.75;;;6.53;;
65936;SDS011;52707;52.086;5.418;2023-06-22T04:19:17;9.13;;;7.13;;
65936;SDS011;52707;52.086;5.418;2023-06-22T04:21:44;8.57;;;6.85;;
65936;SDS011;52707;52.086;5.418;2023-06-22T04:24:11;9.18;;;7.28;;
65936;SDS011;52707;52.086;5.418;2023-06-22T04:26:37;8.60;;;6.35;;
65936;SDS011;52707;52.086;5.418;2023-06-22T04:29:04;14.02;;;6.60;;
65936;SDS011;52707;52.086;5.418;2023-06-22T04:31:32;11.45;;;7.32;;
65936;SDS011;52707;52.086;5.418;2023-06-22T04:34:03;10.70;;;7.20;;
65936;SDS011;52707;52.086;5.418;2023-06-22T04:36:33;14.55;;;8.07;;
65936;SDS011;52707;52.086;5.418;2023-06-22T04:39:04;14.95;;;8.27;;
65936;SDS011;52707;52.086;5.418;2023-06-22T04:41:30;13.50;;;8.52;;
65936;SDS011;52707;52.086;5.418;2023-06-22T04:44:14;14.48;;;9.32;;
65936;SDS011;52707;52.086;5.418;2023-06-22T04:46:50;12.25;;;9.95;;
65936;SDS011;52707;52.086;5.418;2023-06-22T04:49:20;12.82;;;10.00;;
65936;SDS011;52707;52.086;5.418;2023-06-22T04:51:47;15.10;;;10.60;;
65936;SDS011;52707;52.086;5.418;2023-06-22T04:54:14;13.73;;;10.55;;
65936;SDS011;52707;52.086;5.418;2023-06-22T04:56:40;14.32;;;10.75;;
65936;SDS011;52707;52.086;5.418;2023-06-22T04:59:07;16.50;;;11.73;;
65936;SDS011;52707;52.086;5.418;2023-06-22T05:01:34;18.38;;;11.60;;
65936;SDS011;52707;52.086;5.418;2023-06-22T05:04:01;17.35;;;11.80;;
65936;SDS011;52707;52.086;5.418;2023-06-22T05:06:28;26.35;;;12.40;;
65936;SDS011;52707;52.086;5.418;2023-06-22T05:08:55;17.65;;;12.45;;
65936;SDS011;52707;52.086;5.418;2023-06-22T05:11:26;16.67;;;12.18;;
65936;SDS011;52707;52.086;5.418;2023-06-22T05:13:52;26.70;;;12.93;;
65936;SDS011;52707;52.086;5.418;2023-06-22T05:16:20;18.77;;;12.73;;
65936;SDS011;52707;52.086;5.418;2023-06-22T05:18:53;18.13;;;13.65;;
65936;SDS011;52707;52.086;5.418;2023-06-22T05:21:21;25.92;;;13.88;;
65936;SDS011;52707;52.086;5.418;2023-06-22T05:23:48;18.45;;;14.27;;
65936;SDS011;52707;52.086;5.418;2023-06-22T05:26:14;23.08;;;14.45;;
65936;SDS011;52707;52.086;5.418;2023-06-22T05:28:40;25.30;;;16.23;;
65936;SDS011;52707;52.086;5.418;2023-06-22T05:31:07;27.58;;;16.02;;
65936;SDS011;52707;52.086;5.418;2023-06-22T05:33:33;21.70;;;15.57;;
65936;SDS011;52707;52.086;5.418;2023-06-22T05:36:00;26.02;;;17.20;;
65936;SDS011;52707;52.086;5.418;2023-06-22T05:38:26;25.23;;;18.05;;
65936;SDS011;52707;52.086;5.418;2023-06-22T05:40:52;28.20;;;19.08;;
65936;SDS011;52707;52.086;5.418;2023-06-22T05:43:19;27.95;;;18.70;;
65936;SDS011;52707;52.086;5.418;2023-06-22T05:45:45;44.88;;;22.17;;
65936;SDS011;52707;52.086;5.418;2023-06-22T05:48:11;33.78;;;20.98;;
65936;SDS011;52707;52.086;5.418;2023-06-22T05:50:38;31.98;;;21.27;;
65936;SDS011;52707;52.086;5.418;2023-06-22T05:53:04;33.13;;;22.90;;
65936;SDS011;52707;52.086;5.418;2023-06-22T05:55:32;34.60;;;22.20;;
65936;SDS011;52707;52.086;5.418;2023-06-22T05:58:01;37.40;;;24.10;;
65936;SDS011;52707;52.086;5.418;2023-06-22T06:00:27;33.00;;;23.30;;
65936;SDS011;52707;52.086;5.418;2023-06-22T06:02:54;42.95;;;25.50;;
65936;SDS011;52707;52.086;5.418;2023-06-22T06:05:21;35.72;;;24.75;;
65936;SDS011;52707;52.086;5.418;2023-06-22T06:07:49;33.90;;;23.23;;
65936;SDS011;52707;52.086;5.418;2023-06-22T06:10:15;36.50;;;24.60;;
65936;SDS011;52707;52.086;5.418;2023-06-22T06:12:42;47.00;;;25.92;;
65936;SDS011;52707;52.086;5.418;2023-06-22T06:15:08;35.53;;;25.23;;
65936;SDS011;52707;52.086;5.418;2023-06-22T06:17:44;42.78;;;24.30;;
65936;SDS011;52707;52.086;5.418;2023-06-22T06:20:11;35.92;;;24.27;;
65936;SDS011;52707;52.086;5.418;2023-06-22T06:22:38;36.33;;;25.17;;
65936;SDS011;52707;52.086;5.418;2023-06-22T06:25:04;39.85;;;24.20;;
65936;SDS011;52707;52.086;5.418;2023-06-22T06:27:31;39.13;;;25.00;;
65936;SDS011;52707;52.086;5.418;2023-06-22T06:29:57;35.10;;;24.38;;
65936;SDS011;52707;52.086;5.418;2023-06-22T06:32:23;37.03;;;24.85;;
65936;SDS011;52707;52.086;5.418;2023-06-22T06:34:50;40.13;;;26.08;;
65936;SDS011;52707;52.086;5.418;2023-06-22T06:37:17;36.35;;;25.85;;
65936;SDS011;52707;52.086;5.418;2023-06-22T06:39:43;38.25;;;24.77;;
65936;SDS011;52707;52.086;5.418;2023-06-22T06:42:10;37.28;;;22.42;;
65936;SDS011;52707;52.086;5.418;2023-06-22T06:44:37;35.08;;;24.05;;
65936;SDS011;52707;52.086;5.418;2023-06-22T06:47:04;38.03;;;25.15;;
65936;SDS011;52707;52.086;5.418;2023-06-22T06:49:30;41.20;;;24.90;;
65936;SDS011;52707;52.086;5.418;2023-06-22T06:51:57;38.85;;;24.13;;
65936;SDS011;52707;52.086;5.418;2023-06-22T06:54:23;37.03;;;24.95;;
65936;SDS011;52707;52.086;5.418;2023-06-22T06:56:49;29.80;;;20.10;;
65936;SDS011;52707;52.086;5.418;2023-06-22T06:59:16;38.38;;;22.77;;
65936;SDS011;52707;52.086;5.418;2023-06-22T07:01:42;35.08;;;22.90;;
65936;SDS011;52707;52.086;5.418;2023-06-22T07:04:10;36.92;;;23.17;;
65936;SDS011;52707;52.086;5.418;2023-06-22T07:06:37;32.60;;;23.38;;
65936;SDS011;52707;52.086;5.418;2023-06-22T07:09:03;29.02;;;21.10;;
65936;SDS011;52707;52.086;5.418;2023-06-22T07:11:30;35.95;;;22.17;;
65936;SDS011;52707;52.086;5.418;2023-06-22T07:13:56;29.65;;;20.52;;
65936;SDS011;52707;52.086;5.418;2023-06-22T07:16:23;27.35;;;19.60;;
65936;SDS011;52707;52.086;5.418;2023-06-22T07:18:51;28.95;;;18.98;;
65936;SDS011;52707;52.086;5.418;2023-06-22T07:21:17;29.42;;;20.15;;
65936;SDS011;52707;52.086;5.418;2023-06-22T07:23:44;27.15;;;18.42;;
65936;SDS011;52707;52.086;5.418;2023-06-22T07:26:10;25.25;;;17.52;;
65936;SDS011;52707;52.086;5.418;2023-06-22T07:28:38;25.83;;;16.70;;
65936;SDS011;52707;52.086;5.418;2023-06-22T07:31:06;30.40;;;18.67;;
65936;SDS011;52707;52.086;5.418;2023-06-22T07:33:33;21.30;;;15.73;;
65936;SDS011;52707;52.086;5.418;2023-06-22T07:36:00;23.58;;;16.33;;
65936;SDS011;52707;52.086;5.418;2023-06-22T07:38:28;23.08;;;17.05;;
65936;SDS011;52707;52.086;5.418;2023-06-22T07:40:55;25.90;;;17.42;;
65936;SDS011;52707;52.086;5.418;2023-06-22T07:43:21;29.75;;;18.42;;
65936;SDS011;52707;52.086;5.418;2023-06-22T07:45:49;34.65;;;18.73;;
65936;SDS011;52707;52.086;5.418;2023-06-22T07:48:21;26.42;;;17.20;;
65936;SDS011;52707;52.086;5.418;2023-06-22T07:50:48;29.67;;;17.48;;
65936;SDS011;52707;52.086;5.418;2023-06-22T07:53:14;19.00;;;15.15;;
65936;SDS011;52707;52.086;5.418;2023-06-22T07:55:41;22.30;;;15.23;;
65936;SDS011;52707;52.086;5.418;2023-06-22T07:58:07;20.30;;;14.25;;
65936;SDS011;52707;52.086;5.418;2023-06-22T08:00:34;22.88;;;15.13;;
65936;SDS011;52707;52.086;5.418;2023-06-22T08:03:00;20.75;;;15.80;;
65936;SDS011;52707;52.086;5.418;2023-06-22T08:05:30;22.17;;;14.27;;
65936;SDS011;52707;52.086;5.418;2023-06-22T08:07:56;23.35;;;15.00;;
65936;SDS011;52707;52.086;5.418;2023-06-22T08:10:22;19.35;;;13.75;;
65936;SDS011;52707;52.086;5.418;2023-06-22T08:12:49;20.80;;;13.23;;
65936;SDS011;52707;52.086;5.418;2023-06-22T08:15:15;20.23;;;13.75;;
65936;SDS011;52707;52.086;5.418;2023-06-22T08:17:42;18.02;;;12.60;;
65936;SDS011;52707;52.086;5.418;2023-06-22T08:20:08;29.42;;;12.75;;
65936;SDS011;52707;52.086;5.418;2023-06-22T08:22:36;16.63;;;12.20;;
65936;SDS011;52707;52.086;5.418;2023-06-22T08:25:03;15.95;;;11.25;;
65936;SDS011;52707;52.086;5.418;2023-06-22T08:27:30;18.63;;;11.55;;
65936;SDS011;52707;52.086;5.418;2023-06-22T08:29:58;16.50;;;12.25;;
65936;SDS011;52707;52.086;5.418;2023-06-22T08:32:25;15.27;;;11.30;;
65936;SDS011;52707;52.086;5.418;2023-06-22T08:34:56;13.73;;;10.82;;
65936;SDS011;52707;52.086;5.418;2023-06-22T08:37:23;13.57;;;10.68;;
65936;SDS011;52707;52.086;5.418;2023-06-22T08:39:58;25.98;;;11.70;;
65936;SDS011;52707;52.086;5.418;2023-06-22T08:42:24;15.05;;;9.65;;
65936;SDS011;52707;52.086;5.418;2023-06-22T08:44:51;19.33;;;10.65;;
65936;SDS011;52707;52.086;5.418;2023-06-22T08:47:18;14.75;;;9.02;;
65936;SDS011;52707;52.086;5.418;2023-06-22T08:49:44;14.45;;;9.50;;
65936;SDS011;52707;52.086;5.418;2023-06-22T08:52:11;13.52;;;8.55;;
65936;SDS011;52707;52.086;5.418;2023-06-22T08:54:37;14.77;;;9.18;;
65936;SDS011;52707;52.086;5.418;2023-06-22T08:57:03;14.00;;;8.95;;
65936;SDS011;52707;52.086;5.418;2023-06-22T08:59:30;16.77;;;8.57;;
65936;SDS011;52707;52.086;5.418;2023-06-22T09:01:56;13.35;;;9.23;;
65936;SDS011;52707;52.086;5.418;2023-06-22T09:04:24;14.45;;;8.52;;
65936;SDS011;52707;52.086;5.418;2023-06-22T09:06:50;13.35;;;8.75;;
65936;SDS011;52707;52.086;5.418;2023-06-22T09:09:18;12.38;;;8.45;;
65936;SDS011;52707;52.086;5.418;2023-06-22T09:11:44;13.85;;;7.65;;
65936;SDS011;52707;52.086;5.418;2023-06-22T09:14:11;13.05;;;8.27;;
65936;SDS011;52707;52.086;5.418;2023-06-22T09:16:37;12.70;;;8.27;;
65936;SDS011;52707;52.086;5.418;2023-06-22T09:19:04;9.57;;;7.57;;
65936;SDS011;52707;52.086;5.418;2023-06-22T09:21:30;9.70;;;6.78;;
65936;SDS011;52707;52.086;5.418;2023-06-22T09:23:59;10.70;;;6.43;;
65936;SDS011;52707;52.086;5.418;2023-06-22T09:26:26;8.02;;;5.68;;
65936;SDS011;52707;52.086;5.418;2023-06-22T09:28:52;9.05;;;6.47;;
65936;SDS011;52707;52.086;5.418;2023-06-22T09:31:18;12.23;;;6.82;;
65936;SDS011;52707;52.086;5.418;2023-06-22T09:33:54;10.05;;;6.57;;
65936;SDS011;52707;52.086;5.418;2023-06-22T09:36:21;8.43;;;5.05;;
65936;SDS011;52707;52.086;5.418;2023-06-22T09:38:47;12.02;;;6.88;;
65936;SDS011;52707;52.086;5.418;2023-06-22T09:41:14;11.50;;;7.07;;
65936;SDS011;52707;52.086;5.418;2023-06-22T09:43:40;12.85;;;6.78;;
65936;SDS011;52707;52.086;5.418;2023-06-22T09:46:06;9.32;;;6.20;;
65936;SDS011;52707;52.086;5.418;2023-06-22T09:48:33;12.63;;;5.90;;
65936;SDS011;52707;52.086;5.418;2023-06-22T09:50:59;8.68;;;6.43;;
65936;SDS011;52707;52.086;5.418;2023-06-22T09:53:26;9.10;;;5.85;;
65936;SDS011;52707;52.086;5.418;2023-06-22T09:55:52;12.32;;;6.00;;
65936;SDS011;52707;52.086;5.418;2023-06-22T09:58:18;15.60;;;5.90;;
65936;SDS011;52707;52.086;5.418;2023-06-22T10:00:45;10.82;;;5.88;;
65936;SDS011;52707;52.086;5.418;2023-06-22T10:03:11;8.48;;;6.18;;
65936;SDS011;52707;52.086;5.418;2023-06-22T10:05:38;10.63;;;5.95;;
65936;SDS011;52707;52.086;5.418;2023-06-22T10:08:05;11.70;;;6.47;;
65936;SDS011;52707;52.086;5.418;2023-06-22T10:10:31;11.48;;;6.07;;
65936;SDS011;52707;52.086;5.418;2023-06-22T10:13:02;13.85;;;6.70;;
65936;SDS011;52707;52.086;5.418;2023-06-22T10:15:28;9.20;;;6.03;;
65936;SDS011;52707;52.086;5.418;2023-06-22T10:17:55;9.40;;;6.00;;
65936;SDS011;52707;52.086;5.418;2023-06-22T10:20:22;15.13;;;6.93;;
65936;SDS011;52707;52.086;5.418;2023-06-22T10:22:48;11.73;;;6.05;;
65936;SDS011;52707;52.086;5.418;2023-06-22T10:25:14;8.98;;;5.43;;
65936;SDS011;52707;52.086;5.418;2023-06-22T10:27:41;10.38;;;5.88;;
65936;SDS011;52707;52.086;5.418;2023-06-22T10:30:08;16.67;;;5.78;;
65936;SDS011;52707;52.086;5.418;2023-06-22T10:32:35;11.93;;;5.30;;
65936;SDS011;52707;52.086;5.418;2023-06-22T10:35:03;8.93;;;4.85;;
65936;SDS011;52707;52.086;5.418;2023-06-22T10:37:29;10.52;;;5.18;;
65936;SDS011;52707;52.086;5.418;2023-06-22T10:39:56;8.55;;;5.07;;
65936;SDS011;52707;52.086;5.418;2023-06-22T10:42:22;13.00;;;5.05;;
65936;SDS011;52707;52.086;5.418;2023-06-22T10:44:48;12.80;;;4.93;;
65936;SDS011;52707;52.086;5.418;2023-06-22T10:47:15;15.82;;;5.40;;
65936;SDS011;52707;52.086;5.418;2023-06-22T10:49:41;5.82;;;5.07;;
65936;SDS011;52707;52.086;5.418;2023-06-22T10:52:08;11.02;;;5.10;;
65936;SDS011;52707;52.086;5.418;2023-06-22T10:54:35;8.20;;;5.10;;
65936;SDS011;52707;52.086;5.418;2023-06-22T10:57:01;7.90;;;5.45;;
65936;SDS011;52707;52.086;5.418;2023-06-22T10:59:28;7.28;;;5.45;;
65936;SDS011;52707;52.086;5.418;2023-06-22T11:01:55;9.02;;;5.13;;
65936;SDS011;52707;52.086;5.418;2023-06-22T11:04:22;12.18;;;6.15;;
65936;SDS011;52707;52.086;5.418;2023-06-22T11:06:48;11.68;;;5.30;;
65936;SDS011;52707;52.086;5.418;2023-06-22T11:09:15;13.43;;;5.05;;
65936;SDS011;52707;52.086;5.418;2023-06-22T11:11:52;9.82;;;5.18;;
65936;SDS011;52707;52.086;5.418;2023-06-22T11:14:22;10.32;;;4.75;;
65936;SDS011;52707;52.086;5.418;2023-06-22T11:16:48;11.23;;;5.07;;
65936;SDS011;52707;52.086;5.418;2023-06-22T11:19:15;7.93;;;5.60;;
65936;SDS011;52707;52.086;5.418;2023-06-22T11:21:41;6.40;;;5.00;;
65936;SDS011;52707;52.086;5.418;2023-06-22T11:24:08;16.75;;;5.97;;
65936;SDS011;52707;52.086;5.418;2023-06-22T11:26:34;10.40;;;6.18;;
65936;SDS011;52707;52.086;5.418;2023-06-22T11:29:01;13.27;;;6.22;;
65936;SDS011;52707;52.086;5.418;2023-06-22T11:33:57;7.40;;;6.43;;
65936;SDS011;52707;52.086;5.418;2023-06-22T11:36:24;9.23;;;6.20;;
65936;SDS011;52707;52.086;5.418;2023-06-22T11:38:51;12.63;;;6.70;;
65936;SDS011;52707;52.086;5.418;2023-06-22T11:41:17;11.25;;;7.07;;
65936;SDS011;52707;52.086;5.418;2023-06-22T11:43:44;8.45;;;6.22;;
65936;SDS011;52707;52.086;5.418;2023-06-22T11:46:10;10.57;;;5.97;;
65936;SDS011;52707;52.086;5.418;2023-06-22T11:48:37;12.60;;;6.22;;
65936;SDS011;52707;52.086;5.418;2023-06-22T11:51:03;12.50;;;6.53;;
65936;SDS011;52707;52.086;5.418;2023-06-22T11:53:32;10.68;;;6.82;;
65936;SDS011;52707;52.086;5.418;2023-06-22T11:55:58;14.55;;;6.63;;
65936;SDS011;52707;52.086;5.418;2023-06-22T11:58:25;8.40;;;6.05;;
65936;SDS011;52707;52.086;5.418;2023-06-22T12:00:52;11.43;;;6.18;;
65936;SDS011;52707;52.086;5.418;2023-06-22T12:03:19;12.95;;;6.55;;
65936;SDS011;52707;52.086;5.418;2023-06-22T12:05:49;8.45;;;6.65;;
65936;SDS011;52707;52.086;5.418;2023-06-22T12:08:15;10.73;;;5.95;;
65936;SDS011;52707;52.086;5.418;2023-06-22T12:10:42;16.15;;;7.00;;
65936;SDS011;52707;52.086;5.418;2023-06-22T12:13:08;10.82;;;6.43;;
65936;SDS011;52707;52.086;5.418;2023-06-22T12:15:35;27.02;;;7.32;;
65936;SDS011;52707;52.086;5.418;2023-06-22T12:18:02;11.55;;;7.18;;
65936;SDS011;52707;52.086;5.418;2023-06-22T12:20:29;14.50;;;7.45;;
65936;SDS011;52707;52.086;5.418;2023-06-22T12:22:55;19.52;;;7.63;;
65936;SDS011;52707;52.086;5.418;2023-06-22T12:25:24;14.73;;;8.23;;
65936;SDS011;52707;52.086;5.418;2023-06-22T12:27:50;14.35;;;8.80;;
65936;SDS011;52707;52.086;5.418;2023-06-22T12:30:17;27.98;;;9.57;;
65936;SDS011;52707;52.086;5.418;2023-06-22T12:32:43;21.02;;;9.07;;
65936;SDS011;52707;52.086;5.418;2023-06-22T12:35:10;26.45;;;9.25;;
65936;SDS011;52707;52.086;5.418;2023-06-22T12:40:06;18.05;;;10.15;;
65936;SDS011;52707;52.086;5.418;2023-06-22T12:42:33;17.63;;;10.90;;
65936;SDS011;52707;52.086;5.418;2023-06-22T12:44:59;18.15;;;10.55;;
65936;SDS011;52707;52.086;5.418;2023-06-22T12:47:26;22.88;;;11.15;;
65936;SDS011;52707;52.086;5.418;2023-06-22T12:49:52;19.80;;;10.68;;
65936;SDS011;52707;52.086;5.418;2023-06-22T12:52:18;18.17;;;11.30;;
65936;SDS011;52707;52.086;5.418;2023-06-22T12:54:47;12.77;;;10.90;;
65936;SDS011;52707;52.086;5.418;2023-06-22T12:57:21;18.17;;;10.77;;
65936;SDS011;52707;52.086;5.418;2023-06-22T12:59:47;15.98;;;10.48;;
65936;SDS011;52707;52.086;5.418;2023-06-22T13:02:13;15.48;;;10.88;;
65936;SDS011;52707;52.086;5.418;2023-06-22T13:04:40;19.05;;;12.10;;
65936;SDS011;52707;52.086;5.418;2023-06-22T13:07:06;17.33;;;12.05;;
65936;SDS011;52707;52.086;5.418;2023-06-22T13:09:47;20.33;;;12.73;;
65936;SDS011;52707;52.086;5.418;2023-06-22T13:14:44;16.05;;;11.90;;
65936;SDS011;52707;52.086;5.418;2023-06-22T13:17:12;20.85;;;12.88;;
65936;SDS011;52707;52.086;5.418;2023-06-22T13:19:40;19.20;;;13.27;;
65936;SDS011;52707;52.086;5.418;2023-06-22T13:22:25;17.33;;;11.95;;
65936;SDS011;52707;52.086;5.418;2023-06-22T13:24:52;20.73;;;11.27;;
65936;SDS011;52707;52.086;5.418;2023-06-22T13:27:21;18.08;;;13.27;;
65936;SDS011;52707;52.086;5.418;2023-06-22T13:29:47;24.33;;;14.30;;
65936;SDS011;52707;52.086;5.418;2023-06-22T13:32:14;27.05;;;12.98;;
65936;SDS011;52707;52.086;5.418;2023-06-22T13:34:40;26.77;;;14.07;;
65936;SDS011;52707;52.086;5.418;2023-06-22T13:37:06;23.73;;;15.40;;
65936;SDS011;52707;52.086;5.418;2023-06-22T13:39:33;23.40;;;14.85;;
65936;SDS011;52707;52.086;5.418;2023-06-22T13:41:59;19.73;;;13.98;;
65936;SDS011;52707;52.086;5.418;2023-06-22T13:44:25;19.35;;;13.55;;
65936;SDS011;52707;52.086;5.418;2023-06-22T13:46:55;17.90;;;14.70;;
65936;SDS011;52707;52.086;5.418;2023-06-22T13:49:21;18.13;;;13.80;;
65936;SDS011;52707;52.086;5.418;2023-06-22T13:51:47;20.58;;;15.48;;
65936;SDS011;52707;52.086;5.418;2023-06-22T13:54:14;21.73;;;15.70;;
65936;SDS011;52707;52.086;5.418;2023-06-22T13:56:55;22.95;;;16.13;;
65936;SDS011;52707;52.086;5.418;2023-06-22T13:59:22;25.52;;;16.48;;
65936;SDS011;52707;52.086;5.418;2023-06-22T14:01:48;25.75;;;16.40;;
65936;SDS011;52707;52.086;5.418;2023-06-22T14:04:14;23.98;;;16.45;;
65936;SDS011;52707;52.086;5.418;2023-06-22T14:06:41;28.80;;;15.70;;
65936;SDS011;52707;52.086;5.418;2023-06-22T14:09:07;20.67;;;15.15;;
65936;SDS011;52707;52.086;5.418;2023-06-22T14:11:34;23.42;;;15.88;;
65936;SDS011;52707;52.086;5.418;2023-06-22T14:14:00;24.20;;;15.27;;
65936;SDS011;52707;52.086;5.418;2023-06-22T14:16:26;21.88;;;14.65;;
65936;SDS011;52707;52.086;5.418;2023-06-22T14:18:53;21.35;;;14.65;;
65936;SDS011;52707;52.086;5.418;2023-06-22T14:21:23;17.95;;;13.57;;
65936;SDS011;52707;52.086;5.418;2023-06-22T14:23:49;21.30;;;13.13;;
65936;SDS011;52707;52.086;5.418;2023-06-22T14:26:16;18.63;;;13.32;;
65936;SDS011;52707;52.086;5.418;2023-06-22T14:28:45;20.48;;;13.68;;
65936;SDS011;52707;52.086;5.418;2023-06-22T14:31:17;16.27;;;12.60;;
65936;SDS011;52707;52.086;5.418;2023-06-22T14:33:45;17.40;;;12.68;;
65936;SDS011;52707;52.086;5.418;2023-06-22T14:36:12;17.20;;;12.60;;
65936;SDS011;52707;52.086;5.418;2023-06-22T14:38:39;20.90;;;12.55;;
65936;SDS011;52707;52.086;5.418;2023-06-22T14:41:06;22.60;;;12.63;;
65936;SDS011;52707;52.086;5.418;2023-06-22T14:43:43;17.85;;;12.43;;
65936;SDS011;52707;52.086;5.418;2023-06-22T14:46:09;16.25;;;12.43;;
65936;SDS011;52707;52.086;5.418;2023-06-22T14:48:36;18.13;;;12.13;;